sensor_id;sensor_type;location;lat;lon;timestamp;pressure;altitude;pressure_sealevel;temperature;humidity
61357;BME280;47227;46.752;23.576;2023-01-31T00:02:14;95667.52;;;-1.77;85.99
61357;BME280;47227;46.752;23.576;2023-01-31T00:05:41;95658.88;;;-1.74;86.17
61357;BME280;47227;46.752;23.576;2023-01-31T00:08:55;95665.96;;;-1.70;85.73
61357;BME280;47227;46.752;23.576;2023-01-31T00:12:26;95667.17;;;-1.62;85.51
61357;BME280;47227;46.752;23.576;2023-01-31T00:15:35;95669.02;;;-1.53;85.22
61357;BME280;47227;46.752;23.576;2023-01-31T00:19:01;95670.70;;;-1.51;85.59
61357;BME280;47227;46.752;23.576;2023-01-31T00:22:18;95673.10;;;-1.51;85.35
61357;BME280;47227;46.752;23.576;2023-01-31T00:26:14;95665.36;;;-1.51;85.92
61357;BME280;47227;46.752;23.576;2023-01-31T00:29:37;95670.49;;;-1.54;85.85
61357;BME280;47227;46.752;23.576;2023-01-31T00:32:25;95668.36;;;-1.51;85.80
61357;BME280;47227;46.752;23.576;2023-01-31T00:35:39;95665.40;;;-1.50;85.58
61357;BME280;47227;46.752;23.576;2023-01-31T00:39:00;95660.54;;;-1.45;85.37
61357;BME280;47227;46.752;23.576;2023-01-31T00:42:16;95657.05;;;-1.44;84.90
61357;BME280;47227;46.752;23.576;2023-01-31T00:45:26;95653.02;;;-1.45;84.73
61357;BME280;47227;46.752;23.576;2023-01-31T00:49:05;95658.59;;;-1.56;85.91
61357;BME280;47227;46.752;23.576;2023-01-31T00:52:16;95657.89;;;-1.70;86.80
61357;BME280;47227;46.752;23.576;2023-01-31T00:55:37;95655.59;;;-1.79;86.95
61357;BME280;47227;46.752;23.576;2023-01-31T00:58:47;95650.42;;;-1.82;87.45
61357;BME280;47227;46.752;23.576;2023-01-31T01:01:46;95657.10;;;-1.83;87.77
61357;BME280;47227;46.752;23.576;2023-01-31T01:04:39;95648.27;;;-1.85;87.51
61357;BME280;47227;46.752;23.576;2023-01-31T01:08:22;95654.83;;;-1.83;87.83
61357;BME280;47227;46.752;23.576;2023-01-31T01:11:20;95651.88;;;-1.84;87.88
61357;BME280;47227;46.752;23.576;2023-01-31T01:15:20;95654.83;;;-1.86;88.16
61357;BME280;47227;46.752;23.576;2023-01-31T01:19:03;95651.86;;;-1.87;88.81
61357;BME280;47227;46.752;23.576;2023-01-31T01:22:11;95655.02;;;-1.91;89.47
61357;BME280;47227;46.752;23.576;2023-01-31T01:25:04;95656.48;;;-1.92;89.73
61357;BME280;47227;46.752;23.576;2023-01-31T01:27:33;95658.77;;;-1.91;89.63
61357;BME280;47227;46.752;23.576;2023-01-31T01:31:21;95654.98;;;-1.85;88.75
61357;BME280;47227;46.752;23.576;2023-01-31T01:34:39;95655.19;;;-1.80;88.11
61357;BME280;47227;46.752;23.576;2023-01-31T01:38:02;95657.39;;;-1.76;87.71
61357;BME280;47227;46.752;23.576;2023-01-31T01:41:12;95656.35;;;-1.74;87.30
61357;BME280;47227;46.752;23.576;2023-01-31T01:44:55;95660.08;;;-1.69;87.17
61357;BME280;47227;46.752;23.576;2023-01-31T01:48:10;95664.09;;;-1.66;86.64
61357;BME280;47227;46.752;23.576;2023-01-31T01:51:08;95667.90;;;-1.60;86.70
61357;BME280;47227;46.752;23.576;2023-01-31T01:54:04;95673.52;;;-1.59;87.15
61357;BME280;47227;46.752;23.576;2023-01-31T01:57:13;95680.34;;;-1.61;87.72
61357;BME280;47227;46.752;23.576;2023-01-31T02:00:08;95680.84;;;-1.69;88.36
61357;BME280;47227;46.752;23.576;2023-01-31T02:03:32;95685.44;;;-1.66;88.18
61357;BME280;47227;46.752;23.576;2023-01-31T02:06:23;95684.71;;;-1.59;88.03
61357;BME280;47227;46.752;23.576;2023-01-31T02:09:44;95684.26;;;-1.53;88.06
61357;BME280;47227;46.752;23.576;2023-01-31T02:12:39;95685.16;;;-1.48;88.02
61357;BME280;47227;46.752;23.576;2023-01-31T02:16:03;95690.45;;;-1.41;87.33
61357;BME280;47227;46.752;23.576;2023-01-31T02:19:34;95692.61;;;-1.38;87.47
61357;BME280;47227;46.752;23.576;2023-01-31T02:23:07;95696.09;;;-1.38;87.55
61357;BME280;47227;46.752;23.576;2023-01-31T02:30:24;95702.09;;;-1.38;86.92
61357;BME280;47227;46.752;23.576;2023-01-31T02:33:45;95701.60;;;-1.40;86.48
61357;BME280;47227;46.752;23.576;2023-01-31T02:37:40;95705.25;;;-1.44;86.69
61357;BME280;47227;46.752;23.576;2023-01-31T02:48:00;95708.20;;;-1.52;86.92
61357;BME280;47227;46.752;23.576;2023-01-31T02:51:18;95715.80;;;-1.55;87.05
61357;BME280;47227;46.752;23.576;2023-01-31T02:57:00;95712.61;;;-1.53;87.42
61357;BME280;47227;46.752;23.576;2023-01-31T03:05:39;95705.73;;;-1.54;87.08
61357;BME280;47227;46.752;23.576;2023-01-31T03:08:43;95692.46;;;-1.55;86.73
61357;BME280;47227;46.752;23.576;2023-01-31T03:11:20;95694.31;;;-1.56;86.69
61357;BME280;47227;46.752;23.576;2023-01-31T03:20:33;95704.48;;;-1.55;86.24
61357;BME280;47227;46.752;23.576;2023-01-31T03:23:28;95713.42;;;-1.57;85.82
61357;BME280;47227;46.752;23.576;2023-01-31T03:26:36;95716.36;;;-1.56;86.16
61357;BME280;47227;46.752;23.576;2023-01-31T03:29:28;95715.43;;;-1.52;86.20
61357;BME280;47227;46.752;23.576;2023-01-31T03:33:43;95715.54;;;-1.44;86.17
61357;BME280;47227;46.752;23.576;2023-01-31T03:37:11;95716.33;;;-1.40;85.93
61357;BME280;47227;46.752;23.576;2023-01-31T03:41:28;95720.68;;;-1.35;85.94
61357;BME280;47227;46.752;23.576;2023-01-31T03:45:14;95715.45;;;-1.27;85.98
61357;BME280;47227;46.752;23.576;2023-01-31T03:48:52;95714.09;;;-1.22;85.96
61357;BME280;47227;46.752;23.576;2023-01-31T03:52:16;95701.96;;;-1.19;86.05
61357;BME280;47227;46.752;23.576;2023-01-31T03:55:22;95705.92;;;-1.13;85.79
61357;BME280;47227;46.752;23.576;2023-01-31T04:01:57;95716.78;;;-1.18;86.53
61357;BME280;47227;46.752;23.576;2023-01-31T04:05:17;95724.75;;;-1.30;86.97
61357;BME280;47227;46.752;23.576;2023-01-31T04:12:17;95726.48;;;-1.37;86.48
61357;BME280;47227;46.752;23.576;2023-01-31T04:15:38;95722.85;;;-1.40;86.23
61357;BME280;47227;46.752;23.576;2023-01-31T04:18:42;95724.05;;;-1.43;86.20
61357;BME280;47227;46.752;23.576;2023-01-31T04:21:49;95731.91;;;-1.47;85.73
61357;BME280;47227;46.752;23.576;2023-01-31T04:25:14;95735.33;;;-1.54;85.69
61357;BME280;47227;46.752;23.576;2023-01-31T04:28:49;95723.79;;;-1.65;85.59
61357;BME280;47227;46.752;23.576;2023-01-31T04:32:03;95724.51;;;-1.69;85.77
61357;BME280;47227;46.752;23.576;2023-01-31T04:57:18;95738.47;;;-1.43;86.00
61357;BME280;47227;46.752;23.576;2023-01-31T05:04:39;95744.77;;;-1.41;86.30
61357;BME280;47227;46.752;23.576;2023-01-31T05:14:15;95746.31;;;-1.11;85.97
61357;BME280;47227;46.752;23.576;2023-01-31T05:26:33;95737.35;;;-1.48;85.40
61357;BME280;47227;46.752;23.576;2023-01-31T05:37:48;95754.17;;;-1.74;85.40
61357;BME280;47227;46.752;23.576;2023-01-31T11:17:21;95998.80;;;2.30;73.68
61357;BME280;47227;46.752;23.576;2023-01-31T11:19:54;95995.58;;;2.25;73.50
61357;BME280;47227;46.752;23.576;2023-01-31T11:22:29;95996.52;;;2.13;73.56
61357;BME280;47227;46.752;23.576;2023-01-31T11:25:00;95991.11;;;2.24;73.96
61357;BME280;47227;46.752;23.576;2023-01-31T11:27:37;95994.62;;;2.29;73.26
61357;BME280;47227;46.752;23.576;2023-01-31T11:30:20;95998.00;;;2.24;72.49
61357;BME280;47227;46.752;23.576;2023-01-31T11:32:53;95991.33;;;2.21;73.31
61357;BME280;47227;46.752;23.576;2023-01-31T11:35:25;95993.17;;;2.32;72.62
61357;BME280;47227;46.752;23.576;2023-01-31T11:38:18;95986.61;;;2.12;73.47
61357;BME280;47227;46.752;23.576;2023-01-31T11:40:49;95987.27;;;2.19;73.35
61357;BME280;47227;46.752;23.576;2023-01-31T11:43:23;95988.50;;;2.22;73.18
61357;BME280;47227;46.752;23.576;2023-01-31T11:45:56;95987.98;;;2.18;72.62
61357;BME280;47227;46.752;23.576;2023-01-31T11:48:35;95993.16;;;2.11;72.80
61357;BME280;47227;46.752;23.576;2023-01-31T11:51:06;95993.77;;;2.02;72.82
61357;BME280;47227;46.752;23.576;2023-01-31T11:53:56;95992.58;;;1.92;73.42
61357;BME280;47227;46.752;23.576;2023-01-31T11:56:45;95994.14;;;1.93;73.63
61357;BME280;47227;46.752;23.576;2023-01-31T12:02:24;95998.77;;;1.69;73.39
61357;BME280;47227;46.752;23.576;2023-01-31T12:04:54;95993.64;;;1.70;73.89
61357;BME280;47227;46.752;23.576;2023-01-31T12:07:40;95993.13;;;1.70;73.83
61357;BME280;47227;46.752;23.576;2023-01-31T12:10:44;96000.08;;;1.68;73.98
61357;BME280;47227;46.752;23.576;2023-01-31T12:13:22;96004.54;;;1.64;74.11
61357;BME280;47227;46.752;23.576;2023-01-31T12:16:36;96008.63;;;1.54;73.81
61357;BME280;47227;46.752;23.576;2023-01-31T12:19:34;96014.83;;;1.39;74.63
61357;BME280;47227;46.752;23.576;2023-01-31T12:22:34;96020.70;;;1.34;74.05
61357;BME280;47227;46.752;23.576;2023-01-31T12:25:15;96027.27;;;1.38;73.83
61357;BME280;47227;46.752;23.576;2023-01-31T12:31:26;96024.63;;;1.47;73.14
61357;BME280;47227;46.752;23.576;2023-01-31T12:34:11;96033.27;;;1.51;72.31
61357;BME280;47227;46.752;23.576;2023-01-31T12:37:17;96031.52;;;1.37;71.79
61357;BME280;47227;46.752;23.576;2023-01-31T12:50:37;96048.36;;;1.44;71.16
61357;BME280;47227;46.752;23.576;2023-01-31T12:53:28;96050.83;;;1.42;71.37
61357;BME280;47227;46.752;23.576;2023-01-31T12:59:30;96052.05;;;1.54;69.81
61357;BME280;47227;46.752;23.576;2023-01-31T13:02:33;96056.40;;;1.47;69.01
61357;BME280;47227;46.752;23.576;2023-01-31T13:05:27;96059.79;;;1.93;68.79
61357;BME280;47227;46.752;23.576;2023-01-31T13:09:10;96055.30;;;2.25;67.27
61357;BME280;47227;46.752;23.576;2023-01-31T13:13:25;96060.44;;;2.11;66.75
61357;BME280;47227;46.752;23.576;2023-01-31T13:16:28;96057.15;;;1.83;66.60
61357;BME280;47227;46.752;23.576;2023-01-31T13:27:09;96059.77;;;1.42;67.91
61357;BME280;47227;46.752;23.576;2023-01-31T13:30:50;96070.76;;;2.48;67.56
61357;BME280;47227;46.752;23.576;2023-01-31T13:38:16;96065.44;;;2.87;63.47
61357;BME280;47227;46.752;23.576;2023-01-31T13:44:13;96060.19;;;3.80;62.46
61357;BME280;47227;46.752;23.576;2023-01-31T13:47:23;96062.05;;;4.04;60.72
61357;BME280;47227;46.752;23.576;2023-01-31T13:50:39;96059.70;;;3.71;60.92
61357;BME280;47227;46.752;23.576;2023-01-31T13:53:31;96067.38;;;4.05;59.33
61357;BME280;47227;46.752;23.576;2023-01-31T13:56:03;96066.51;;;3.73;59.77
61357;BME280;47227;46.752;23.576;2023-01-31T13:58:47;96070.17;;;3.45;60.62
61357;BME280;47227;46.752;23.576;2023-01-31T14:01:24;96067.69;;;3.20;60.95
61357;BME280;47227;46.752;23.576;2023-01-31T14:05:57;96060.92;;;2.81;62.12
61357;BME280;47227;46.752;23.576;2023-01-31T14:38:40;96090.19;;;1.56;65.30
61357;BME280;47227;46.752;23.576;2023-01-31T15:19:42;96124.75;;;0.84;65.68
61357;BME280;47227;46.752;23.576;2023-01-31T15:23:01;96129.80;;;0.72;66.00
61357;BME280;47227;46.752;23.576;2023-01-31T15:39:59;96138.19;;;0.36;67.01
61357;BME280;47227;46.752;23.576;2023-01-31T15:43:47;96136.08;;;0.29;67.04
61357;BME280;47227;46.752;23.576;2023-01-31T15:46:28;96135.42;;;0.32;67.28
61357;BME280;47227;46.752;23.576;2023-01-31T15:48:59;96139.02;;;0.29;67.45
61357;BME280;47227;46.752;23.576;2023-01-31T15:51:28;96133.96;;;0.28;67.40
61357;BME280;47227;46.752;23.576;2023-01-31T15:54:02;96139.00;;;0.23;67.52
61357;BME280;47227;46.752;23.576;2023-01-31T15:56:37;96141.75;;;0.23;67.30
61357;BME280;47227;46.752;23.576;2023-01-31T15:59:12;96146.97;;;0.23;67.58
61357;BME280;47227;46.752;23.576;2023-01-31T16:01:56;96153.76;;;0.24;67.51
61357;BME280;47227;46.752;23.576;2023-01-31T16:04:26;96156.84;;;0.22;67.65
61357;BME280;47227;46.752;23.576;2023-01-31T16:06:55;96157.29;;;0.23;67.63
61357;BME280;47227;46.752;23.576;2023-01-31T16:09:26;96153.39;;;0.18;68.17
61357;BME280;47227;46.752;23.576;2023-01-31T16:11:57;96153.51;;;0.17;68.35
61357;BME280;47227;46.752;23.576;2023-01-31T16:14:27;96158.89;;;0.16;68.25
61357;BME280;47227;46.752;23.576;2023-01-31T16:16:57;96159.08;;;0.15;68.26
61357;BME280;47227;46.752;23.576;2023-01-31T16:19:31;96156.17;;;0.13;68.40
61357;BME280;47227;46.752;23.576;2023-01-31T16:22:02;96160.52;;;0.11;68.31
61357;BME280;47227;46.752;23.576;2023-01-31T16:24:30;96167.44;;;0.10;68.76
61357;BME280;47227;46.752;23.576;2023-01-31T16:27:06;96169.09;;;0.10;68.47
61357;BME280;47227;46.752;23.576;2023-01-31T16:29:41;96174.20;;;0.11;68.66
61357;BME280;47227;46.752;23.576;2023-01-31T16:32:18;96178.57;;;0.12;68.63
61357;BME280;47227;46.752;23.576;2023-01-31T16:34:55;96177.64;;;0.14;68.61
61357;BME280;47227;46.752;23.576;2023-01-31T16:37:36;96174.55;;;0.15;68.72
61357;BME280;47227;46.752;23.576;2023-01-31T16:40:19;96178.14;;;0.17;68.76
61357;BME280;47227;46.752;23.576;2023-01-31T16:42:49;96178.80;;;0.18;68.87
61357;BME280;47227;46.752;23.576;2023-01-31T16:45:32;96177.31;;;0.21;68.92
61357;BME280;47227;46.752;23.576;2023-01-31T16:48:28;96170.52;;;0.21;68.88
61357;BME280;47227;46.752;23.576;2023-01-31T16:51:00;96176.36;;;0.21;68.96
61357;BME280;47227;46.752;23.576;2023-01-31T16:57:19;96174.77;;;0.17;68.91
61357;BME280;47227;46.752;23.576;2023-01-31T16:59:51;96177.38;;;0.16;69.02
61357;BME280;47227;46.752;23.576;2023-01-31T17:02:24;96183.36;;;0.14;68.98
61357;BME280;47227;46.752;23.576;2023-01-31T17:04:56;96184.74;;;0.15;69.05
61357;BME280;47227;46.752;23.576;2023-01-31T17:07:28;96185.61;;;0.13;69.07
61357;BME280;47227;46.752;23.576;2023-01-31T17:10:19;96183.36;;;0.13;69.10
61357;BME280;47227;46.752;23.576;2023-01-31T17:12:59;96175.52;;;0.14;69.03
61357;BME280;47227;46.752;23.576;2023-01-31T17:15:28;96168.39;;;0.18;69.29
61357;BME280;47227;46.752;23.576;2023-01-31T17:17:56;96174.08;;;0.23;69.38
61357;BME280;47227;46.752;23.576;2023-01-31T17:20:27;96169.33;;;0.28;69.52
61357;BME280;47227;46.752;23.576;2023-01-31T17:22:55;96172.01;;;0.35;69.47
61357;BME280;47227;46.752;23.576;2023-01-31T17:25:32;96171.85;;;0.40;69.56
61357;BME280;47227;46.752;23.576;2023-01-31T17:28:05;96173.15;;;0.45;69.55
61357;BME280;47227;46.752;23.576;2023-01-31T17:30:37;96175.73;;;0.48;69.48
61357;BME280;47227;46.752;23.576;2023-01-31T17:33:16;96177.29;;;0.50;69.53
61357;BME280;47227;46.752;23.576;2023-01-31T17:35:45;96181.77;;;0.49;69.39
61357;BME280;47227;46.752;23.576;2023-01-31T17:38:14;96180.92;;;0.48;69.41
61357;BME280;47227;46.752;23.576;2023-01-31T17:40:43;96184.99;;;0.46;69.32
61357;BME280;47227;46.752;23.576;2023-01-31T17:43:18;96190.33;;;0.42;69.35
61357;BME280;47227;46.752;23.576;2023-01-31T17:45:47;96187.30;;;0.40;69.29
61357;BME280;47227;46.752;23.576;2023-01-31T17:48:15;96186.11;;;0.37;69.40
61357;BME280;47227;46.752;23.576;2023-01-31T17:50:53;96186.95;;;0.36;69.40
61357;BME280;47227;46.752;23.576;2023-01-31T17:53:21;96190.06;;;0.35;69.55
61357;BME280;47227;46.752;23.576;2023-01-31T17:55:49;96190.34;;;0.35;69.54
61357;BME280;47227;46.752;23.576;2023-01-31T17:58:17;96187.05;;;0.35;69.38
61357;BME280;47227;46.752;23.576;2023-01-31T18:00:45;96182.41;;;0.35;69.44
61357;BME280;47227;46.752;23.576;2023-01-31T18:03:16;96186.60;;;0.35;69.61
61357;BME280;47227;46.752;23.576;2023-01-31T18:05:44;96184.86;;;0.35;69.56
61357;BME280;47227;46.752;23.576;2023-01-31T18:08:14;96193.88;;;0.34;69.72
61357;BME280;47227;46.752;23.576;2023-01-31T18:10:42;96196.56;;;0.35;69.78
61357;BME280;47227;46.752;23.576;2023-01-31T18:13:10;96193.77;;;0.34;69.77
61357;BME280;47227;46.752;23.576;2023-01-31T18:15:38;96198.54;;;0.33;69.85
61357;BME280;47227;46.752;23.576;2023-01-31T18:18:06;96195.83;;;0.31;69.85
61357;BME280;47227;46.752;23.576;2023-01-31T18:20:37;96196.71;;;0.30;70.02
61357;BME280;47227;46.752;23.576;2023-01-31T18:23:05;96194.14;;;0.27;70.07
61357;BME280;47227;46.752;23.576;2023-01-31T18:25:33;96197.89;;;0.24;70.41
61357;BME280;47227;46.752;23.576;2023-01-31T18:28:05;96200.80;;;0.21;70.62
61357;BME280;47227;46.752;23.576;2023-01-31T18:30:33;96201.29;;;0.18;70.78
61357;BME280;47227;46.752;23.576;2023-01-31T18:33:03;96199.41;;;0.17;70.75
61357;BME280;47227;46.752;23.576;2023-01-31T18:35:31;96204.20;;;0.16;70.90
61357;BME280;47227;46.752;23.576;2023-01-31T18:37:59;96201.26;;;0.14;70.87
61357;BME280;47227;46.752;23.576;2023-01-31T18:40:27;96203.27;;;0.15;71.01
61357;BME280;47227;46.752;23.576;2023-01-31T18:42:54;96203.27;;;0.18;71.29
61357;BME280;47227;46.752;23.576;2023-01-31T18:45:22;96202.98;;;0.22;71.42
61357;BME280;47227;46.752;23.576;2023-01-31T18:47:50;96205.02;;;0.25;71.51
61357;BME280;47227;46.752;23.576;2023-01-31T18:50:18;96204.30;;;0.29;71.79
61357;BME280;47227;46.752;23.576;2023-01-31T18:52:46;96203.22;;;0.33;71.65
61357;BME280;47227;46.752;23.576;2023-01-31T18:55:14;96202.73;;;0.35;71.75
61357;BME280;47227;46.752;23.576;2023-01-31T18:57:42;96202.28;;;0.38;71.71
61357;BME280;47227;46.752;23.576;2023-01-31T19:00:13;96196.04;;;0.38;71.61
61357;BME280;47227;46.752;23.576;2023-01-31T19:02:41;96198.39;;;0.40;71.71
61357;BME280;47227;46.752;23.576;2023-01-31T19:05:09;96202.61;;;0.40;71.68
61357;BME280;47227;46.752;23.576;2023-01-31T19:07:37;96203.91;;;0.40;71.55
61357;BME280;47227;46.752;23.576;2023-01-31T19:10:05;96199.27;;;0.38;71.60
61357;BME280;47227;46.752;23.576;2023-01-31T19:12:33;96202.02;;;0.37;71.57
61357;BME280;47227;46.752;23.576;2023-01-31T19:15:07;96199.46;;;0.34;71.48
61357;BME280;47227;46.752;23.576;2023-01-31T19:17:35;96200.70;;;0.31;71.60
61357;BME280;47227;46.752;23.576;2023-01-31T19:20:04;96196.91;;;0.28;71.63
61357;BME280;47227;46.752;23.576;2023-01-31T19:22:32;96200.28;;;0.24;71.74
61357;BME280;47227;46.752;23.576;2023-01-31T19:25:00;96205.02;;;0.19;71.81
61357;BME280;47227;46.752;23.576;2023-01-31T19:27:28;96204.25;;;0.12;71.88
61357;BME280;47227;46.752;23.576;2023-01-31T19:29:56;96201.91;;;0.05;71.95
61357;BME280;47227;46.752;23.576;2023-01-31T19:32:24;96203.73;;;-0.00;72.18
61357;BME280;47227;46.752;23.576;2023-01-31T19:34:51;96203.00;;;-0.05;72.04
61357;BME280;47227;46.752;23.576;2023-01-31T19:37:20;96208.74;;;-0.08;72.28
61357;BME280;47227;46.752;23.576;2023-01-31T19:39:48;96210.91;;;-0.10;72.25
61357;BME280;47227;46.752;23.576;2023-01-31T19:42:16;96210.58;;;-0.13;72.26
61357;BME280;47227;46.752;23.576;2023-01-31T19:44:46;96210.00;;;-0.17;72.39
61357;BME280;47227;46.752;23.576;2023-01-31T19:47:14;96207.39;;;-0.20;72.73
61357;BME280;47227;46.752;23.576;2023-01-31T19:49:41;96207.00;;;-0.19;72.60
61357;BME280;47227;46.752;23.576;2023-01-31T19:52:09;96209.91;;;-0.18;72.89
61357;BME280;47227;46.752;23.576;2023-01-31T19:54:37;96213.70;;;-0.15;73.18
61357;BME280;47227;46.752;23.576;2023-01-31T19:57:07;96211.88;;;-0.13;73.23
61357;BME280;47227;46.752;23.576;2023-01-31T19:59:35;96209.45;;;-0.10;73.55
61357;BME280;47227;46.752;23.576;2023-01-31T20:02:03;96204.52;;;-0.07;73.37
61357;BME280;47227;46.752;23.576;2023-01-31T20:04:31;96209.61;;;-0.05;73.40
61357;BME280;47227;46.752;23.576;2023-01-31T20:06:59;96206.75;;;-0.07;73.39
61357;BME280;47227;46.752;23.576;2023-01-31T20:09:27;96208.83;;;-0.09;73.34
61357;BME280;47227;46.752;23.576;2023-01-31T20:11:55;96214.93;;;-0.12;73.22
61357;BME280;47227;46.752;23.576;2023-01-31T20:14:23;96214.05;;;-0.16;73.35
61357;BME280;47227;46.752;23.576;2023-01-31T20:16:51;96216.02;;;-0.22;73.48
61357;BME280;47227;46.752;23.576;2023-01-31T20:19:19;96217.83;;;-0.26;73.31
61357;BME280;47227;46.752;23.576;2023-01-31T20:21:49;96215.39;;;-0.31;73.68
61357;BME280;47227;46.752;23.576;2023-01-31T20:24:17;96217.89;;;-0.34;73.56
61357;BME280;47227;46.752;23.576;2023-01-31T20:26:45;96218.48;;;-0.38;73.77
61357;BME280;47227;46.752;23.576;2023-01-31T20:29:13;96219.95;;;-0.40;73.57
61357;BME280;47227;46.752;23.576;2023-01-31T20:31:41;96219.77;;;-0.42;74.04
61357;BME280;47227;46.752;23.576;2023-01-31T20:34:09;96222.99;;;-0.41;74.04
61357;BME280;47227;46.752;23.576;2023-01-31T20:36:37;96222.63;;;-0.40;74.15
61357;BME280;47227;46.752;23.576;2023-01-31T20:39:05;96226.98;;;-0.37;74.33
61357;BME280;47227;46.752;23.576;2023-01-31T20:41:33;96221.30;;;-0.34;74.41
61357;BME280;47227;46.752;23.576;2023-01-31T20:44:01;96220.77;;;-0.31;74.49
61357;BME280;47227;46.752;23.576;2023-01-31T20:46:29;96219.46;;;-0.29;74.38
61357;BME280;47227;46.752;23.576;2023-01-31T20:48:57;96225.54;;;-0.27;74.46
61357;BME280;47227;46.752;23.576;2023-01-31T20:51:25;96229.09;;;-0.26;74.36
61357;BME280;47227;46.752;23.576;2023-01-31T20:53:53;96226.86;;;-0.26;74.21
61357;BME280;47227;46.752;23.576;2023-01-31T20:56:20;96223.26;;;-0.26;74.26
61357;BME280;47227;46.752;23.576;2023-01-31T20:58:48;96225.55;;;-0.27;74.20
61357;BME280;47227;46.752;23.576;2023-01-31T21:01:16;96221.84;;;-0.29;74.20
61357;BME280;47227;46.752;23.576;2023-01-31T21:03:44;96222.20;;;-0.32;74.19
61357;BME280;47227;46.752;23.576;2023-01-31T21:06:12;96216.52;;;-0.34;74.28
61357;BME280;47227;46.752;23.576;2023-01-31T21:08:40;96217.98;;;-0.40;74.61
61357;BME280;47227;46.752;23.576;2023-01-31T21:11:10;96216.45;;;-0.43;74.51
61357;BME280;47227;46.752;23.576;2023-01-31T21:13:39;96218.00;;;-0.45;74.54
61357;BME280;47227;46.752;23.576;2023-01-31T21:16:10;96216.89;;;-0.45;74.86
61357;BME280;47227;46.752;23.576;2023-01-31T21:18:39;96214.43;;;-0.45;75.20
61357;BME280;47227;46.752;23.576;2023-01-31T21:21:13;96213.97;;;-0.44;75.22
61357;BME280;47227;46.752;23.576;2023-01-31T21:23:41;96207.52;;;-0.43;75.33
61357;BME280;47227;46.752;23.576;2023-01-31T21:26:10;96207.41;;;-0.45;75.59
61357;BME280;47227;46.752;23.576;2023-01-31T21:28:38;96205.67;;;-0.48;75.77
61357;BME280;47227;46.752;23.576;2023-01-31T21:31:09;96200.32;;;-0.51;75.68
61357;BME280;47227;46.752;23.576;2023-01-31T21:33:39;96197.27;;;-0.54;75.47
61357;BME280;47227;46.752;23.576;2023-01-31T21:36:09;96196.21;;;-0.56;75.77
61357;BME280;47227;46.752;23.576;2023-01-31T21:38:38;96194.98;;;-0.59;75.50
61357;BME280;47227;46.752;23.576;2023-01-31T21:41:07;96193.92;;;-0.62;75.65
61357;BME280;47227;46.752;23.576;2023-01-31T21:43:48;96191.15;;;-0.64;75.52
61357;BME280;47227;46.752;23.576;2023-01-31T21:46:16;96189.98;;;-0.66;75.53
61357;BME280;47227;46.752;23.576;2023-01-31T21:48:44;96184.70;;;-0.67;75.55
61357;BME280;47227;46.752;23.576;2023-01-31T21:51:14;96182.84;;;-0.67;75.21
61357;BME280;47227;46.752;23.576;2023-01-31T21:53:43;96187.04;;;-0.68;75.37
61357;BME280;47227;46.752;23.576;2023-01-31T21:56:14;96187.59;;;-0.68;75.20
61357;BME280;47227;46.752;23.576;2023-01-31T21:58:45;96183.41;;;-0.69;75.21
61357;BME280;47227;46.752;23.576;2023-01-31T22:01:16;96184.88;;;-0.71;74.97
61357;BME280;47227;46.752;23.576;2023-01-31T22:03:47;96185.71;;;-0.74;75.19
61357;BME280;47227;46.752;23.576;2023-01-31T22:06:19;96181.84;;;-0.77;75.21
61357;BME280;47227;46.752;23.576;2023-01-31T22:08:54;96178.77;;;-0.81;75.15
61357;BME280;47227;46.752;23.576;2023-01-31T22:11:23;96178.13;;;-0.86;75.15
61357;BME280;47227;46.752;23.576;2023-01-31T22:13:52;96181.79;;;-0.89;75.03
61357;BME280;47227;46.752;23.576;2023-01-31T22:16:22;96179.02;;;-0.93;74.85
61357;BME280;47227;46.752;23.576;2023-01-31T22:18:51;96177.02;;;-0.97;74.80
61357;BME280;47227;46.752;23.576;2023-01-31T22:21:23;96175.83;;;-1.00;74.88
61357;BME280;47227;46.752;23.576;2023-01-31T22:23:54;96171.03;;;-1.03;74.97
61357;BME280;47227;46.752;23.576;2023-01-31T22:26:25;96166.63;;;-1.06;75.01
61357;BME280;47227;46.752;23.576;2023-01-31T22:28:55;96163.09;;;-1.10;74.92
61357;BME280;47227;46.752;23.576;2023-01-31T22:31:24;96161.96;;;-1.14;75.15
61357;BME280;47227;46.752;23.576;2023-01-31T22:33:53;96164.59;;;-1.16;74.86
61357;BME280;47227;46.752;23.576;2023-01-31T22:36:22;96162.11;;;-1.15;75.26
61357;BME280;47227;46.752;23.576;2023-01-31T22:38:51;96162.35;;;-1.12;74.85
61357;BME280;47227;46.752;23.576;2023-01-31T22:41:20;96165.64;;;-1.10;75.06
61357;BME280;47227;46.752;23.576;2023-01-31T22:43:49;96163.82;;;-1.06;75.19
61357;BME280;47227;46.752;23.576;2023-01-31T22:46:21;96158.28;;;-0.99;75.33
61357;BME280;47227;46.752;23.576;2023-01-31T22:48:51;96156.50;;;-0.92;75.21
61357;BME280;47227;46.752;23.576;2023-01-31T22:51:22;96152.45;;;-0.82;75.47
61357;BME280;47227;46.752;23.576;2023-01-31T22:53:50;96151.17;;;-0.74;75.49
61357;BME280;47227;46.752;23.576;2023-01-31T22:56:21;96150.91;;;-0.65;75.60
61357;BME280;47227;46.752;23.576;2023-01-31T22:58:58;96148.77;;;-0.57;75.43
61357;BME280;47227;46.752;23.576;2023-01-31T23:01:29;96150.61;;;-0.48;75.49
61357;BME280;47227;46.752;23.576;2023-01-31T23:03:59;96147.15;;;-0.42;75.31
61357;BME280;47227;46.752;23.576;2023-01-31T23:06:29;96143.09;;;-0.37;74.87
61357;BME280;47227;46.752;23.576;2023-01-31T23:08:57;96140.35;;;-0.37;73.85
61357;BME280;47227;46.752;23.576;2023-01-31T23:11:26;96138.39;;;-0.38;74.24
61357;BME280;47227;46.752;23.576;2023-01-31T23:13:55;96136.45;;;-0.38;73.88
61357;BME280;47227;46.752;23.576;2023-01-31T23:16:25;96133.73;;;-0.36;74.11
